sensor_id;sensor_type;location;lat;lon;timestamp;temperature;humidity
22923;DHT22;11627;51.322;22.816;2022-12-18T00:02:16;-5.50;53.20
22923;DHT22;11627;51.322;22.816;2022-12-18T00:04:41;-5.60;53.70
22923;DHT22;11627;51.322;22.816;2022-12-18T00:07:07;-5.50;54.90
22923;DHT22;11627;51.322;22.816;2022-12-18T00:09:33;-5.50;50.00
22923;DHT22;11627;51.322;22.816;2022-12-18T00:11:59;-5.70;48.90
22923;DHT22;11627;51.322;22.816;2022-12-18T00:14:25;-5.70;49.40
22923;DHT22;11627;51.322;22.816;2022-12-18T00:16:51;-5.90;49.40
22923;DHT22;11627;51.322;22.816;2022-12-18T00:19:16;-6.00;52.30
22923;DHT22;11627;51.322;22.816;2022-12-18T00:21:43;-6.00;54.70
22923;DHT22;11627;51.322;22.816;2022-12-18T00:24:10;-6.00;54.50
22923;DHT22;11627;51.322;22.816;2022-12-18T00:26:38;-6.10;55.70
22923;DHT22;11627;51.322;22.816;2022-12-18T00:29:14;-6.00;56.00
22923;DHT22;11627;51.322;22.816;2022-12-18T00:31:43;-5.90;55.60
22923;DHT22;11627;51.322;22.816;2022-12-18T00:34:12;-5.90;55.20
22923;DHT22;11627;51.322;22.816;2022-12-18T00:36:40;-5.90;53.70
22923;DHT22;11627;51.322;22.816;2022-12-18T00:39:06;-5.80;50.10
22923;DHT22;11627;51.322;22.816;2022-12-18T00:41:33;-6.00;50.00
22923;DHT22;11627;51.322;22.816;2022-12-18T00:44:19;-5.90;52.80
22923;DHT22;11627;51.322;22.816;2022-12-18T00:46:46;-6.00;52.00
22923;DHT22;11627;51.322;22.816;2022-12-18T00:49:15;-6.00;52.90
22923;DHT22;11627;51.322;22.816;2022-12-18T00:51:41;-6.10;51.40
22923;DHT22;11627;51.322;22.816;2022-12-18T00:54:07;-6.00;53.20
22923;DHT22;11627;51.322;22.816;2022-12-18T00:56:34;-6.10;51.80
22923;DHT22;11627;51.322;22.816;2022-12-18T00:59:00;-6.10;53.80
22923;DHT22;11627;51.322;22.816;2022-12-18T01:01:25;-6.20;54.10
22923;DHT22;11627;51.322;22.816;2022-12-18T01:03:51;-6.20;56.20
22923;DHT22;11627;51.322;22.816;2022-12-18T01:06:17;-6.30;56.70
22923;DHT22;11627;51.322;22.816;2022-12-18T01:08:42;-6.30;56.00
22923;DHT22;11627;51.322;22.816;2022-12-18T01:11:10;-6.30;56.60
22923;DHT22;11627;51.322;22.816;2022-12-18T01:13:37;-6.40;55.70
22923;DHT22;11627;51.322;22.816;2022-12-18T01:16:05;-6.40;58.00
22923;DHT22;11627;51.322;22.816;2022-12-18T01:18:30;-6.30;59.20
22923;DHT22;11627;51.322;22.816;2022-12-18T01:20:56;-6.20;59.30
22923;DHT22;11627;51.322;22.816;2022-12-18T01:23:22;-6.20;57.30
22923;DHT22;11627;51.322;22.816;2022-12-18T01:25:47;-6.30;55.40
22923;DHT22;11627;51.322;22.816;2022-12-18T01:28:13;-6.30;57.10
22923;DHT22;11627;51.322;22.816;2022-12-18T01:30:40;-6.30;58.30
22923;DHT22;11627;51.322;22.816;2022-12-18T01:33:05;-6.30;57.30
22923;DHT22;11627;51.322;22.816;2022-12-18T01:35:31;-6.40;58.20
22923;DHT22;11627;51.322;22.816;2022-12-18T01:37:57;-6.50;60.40
22923;DHT22;11627;51.322;22.816;2022-12-18T01:40:22;-6.50;62.20
22923;DHT22;11627;51.322;22.816;2022-12-18T01:42:52;-6.60;64.30
22923;DHT22;11627;51.322;22.816;2022-12-18T01:47:59;-6.60;67.50
22923;DHT22;11627;51.322;22.816;2022-12-18T01:55:22;-6.50;68.10
22923;DHT22;11627;51.322;22.816;2022-12-18T01:57:51;-6.50;66.70
22923;DHT22;11627;51.322;22.816;2022-12-18T02:00:19;-6.50;67.20
22923;DHT22;11627;51.322;22.816;2022-12-18T02:02:46;-6.60;67.90
22923;DHT22;11627;51.322;22.816;2022-12-18T02:05:15;-6.60;69.40
22923;DHT22;11627;51.322;22.816;2022-12-18T02:13:19;-6.50;71.30
22923;DHT22;11627;51.322;22.816;2022-12-18T02:16:06;-6.50;70.60
22923;DHT22;11627;51.322;22.816;2022-12-18T02:18:38;-6.50;69.00
22923;DHT22;11627;51.322;22.816;2022-12-18T02:21:24;-6.50;68.20
22923;DHT22;11627;51.322;22.816;2022-12-18T02:26:30;-6.60;69.20
22923;DHT22;11627;51.322;22.816;2022-12-18T02:29:02;-6.60;70.00
22923;DHT22;11627;51.322;22.816;2022-12-18T02:31:35;-6.60;70.00
22923;DHT22;11627;51.322;22.816;2022-12-18T02:34:03;-6.60;71.20
22923;DHT22;11627;51.322;22.816;2022-12-18T02:36:31;-6.50;72.10
22923;DHT22;11627;51.322;22.816;2022-12-18T02:38:58;-6.50;71.70
22923;DHT22;11627;51.322;22.816;2022-12-18T02:41:25;-6.50;70.70
22923;DHT22;11627;51.322;22.816;2022-12-18T02:43:59;-6.60;70.00
22923;DHT22;11627;51.322;22.816;2022-12-18T02:46:49;-6.50;71.50
22923;DHT22;11627;51.322;22.816;2022-12-18T02:49:40;-6.50;71.50
22923;DHT22;11627;51.322;22.816;2022-12-18T02:55:35;-6.50;72.00
22923;DHT22;11627;51.322;22.816;2022-12-18T02:58:07;-6.60;72.00
22923;DHT22;11627;51.322;22.816;2022-12-18T03:01:10;-6.50;72.60
22923;DHT22;11627;51.322;22.816;2022-12-18T03:06:23;-6.50;71.80
22923;DHT22;11627;51.322;22.816;2022-12-18T03:08:56;-6.40;73.20
22923;DHT22;11627;51.322;22.816;2022-12-18T03:11:25;-6.40;72.70
22923;DHT22;11627;51.322;22.816;2022-12-18T03:14:13;-6.30;71.70
22923;DHT22;11627;51.322;22.816;2022-12-18T03:16:41;-6.30;69.90
22923;DHT22;11627;51.322;22.816;2022-12-18T03:19:13;-6.40;70.10
22923;DHT22;11627;51.322;22.816;2022-12-18T03:21:54;-6.30;70.50
22923;DHT22;11627;51.322;22.816;2022-12-18T03:24:23;-6.20;70.90
22923;DHT22;11627;51.322;22.816;2022-12-18T03:26:54;-6.20;70.90
22923;DHT22;11627;51.322;22.816;2022-12-18T03:29:27;-6.10;70.40
22923;DHT22;11627;51.322;22.816;2022-12-18T03:31:59;-6.10;70.30
22923;DHT22;11627;51.322;22.816;2022-12-18T03:34:30;-6.10;69.40
22923;DHT22;11627;51.322;22.816;2022-12-18T03:36:56;-6.10;69.30
22923;DHT22;11627;51.322;22.816;2022-12-18T03:39:21;-6.10;68.20
22923;DHT22;11627;51.322;22.816;2022-12-18T03:42:00;-6.20;68.60
22923;DHT22;11627;51.322;22.816;2022-12-18T03:45:18;-6.20;69.50
22923;DHT22;11627;51.322;22.816;2022-12-18T03:47:32;-6.10;70.50
22923;DHT22;11627;51.322;22.816;2022-12-18T03:50:19;-6.10;70.80
22923;DHT22;11627;51.322;22.816;2022-12-18T03:55:43;-6.00;69.80
22923;DHT22;11627;51.322;22.816;2022-12-18T03:58:10;-6.00;68.90
22923;DHT22;11627;51.322;22.816;2022-12-18T04:00:37;-6.10;68.40
22923;DHT22;11627;51.322;22.816;2022-12-18T04:03:04;-6.00;69.50
22923;DHT22;11627;51.322;22.816;2022-12-18T04:05:33;-6.00;69.30
22923;DHT22;11627;51.322;22.816;2022-12-18T04:08:01;-6.00;69.60
22923;DHT22;11627;51.322;22.816;2022-12-18T04:10:27;-6.00;70.30
22923;DHT22;11627;51.322;22.816;2022-12-18T04:12:56;-5.90;69.80
22923;DHT22;11627;51.322;22.816;2022-12-18T04:15:23;-6.00;69.70
22923;DHT22;11627;51.322;22.816;2022-12-18T04:17:49;-6.00;69.80
22923;DHT22;11627;51.322;22.816;2022-12-18T04:20:15;-6.00;69.70
22923;DHT22;11627;51.322;22.816;2022-12-18T04:22:43;-6.10;70.30
22923;DHT22;11627;51.322;22.816;2022-12-18T04:25:09;-6.10;71.10
22923;DHT22;11627;51.322;22.816;2022-12-18T04:27:34;-6.10;71.60
22923;DHT22;11627;51.322;22.816;2022-12-18T04:30:00;-6.10;72.20
22923;DHT22;11627;51.322;22.816;2022-12-18T04:32:26;-6.10;72.80
22923;DHT22;11627;51.322;22.816;2022-12-18T04:34:51;-6.10;72.50
22923;DHT22;11627;51.322;22.816;2022-12-18T04:37:17;-6.10;71.90
22923;DHT22;11627;51.322;22.816;2022-12-18T04:39:43;-6.00;72.70
22923;DHT22;11627;51.322;22.816;2022-12-18T04:42:09;-5.90;72.00
22923;DHT22;11627;51.322;22.816;2022-12-18T04:44:36;-5.90;69.30
22923;DHT22;11627;51.322;22.816;2022-12-18T04:47:02;-6.00;68.90
22923;DHT22;11627;51.322;22.816;2022-12-18T04:49:27;-5.90;69.30
22923;DHT22;11627;51.322;22.816;2022-12-18T04:51:53;-5.90;67.70
22923;DHT22;11627;51.322;22.816;2022-12-18T04:54:18;-5.90;66.90
22923;DHT22;11627;51.322;22.816;2022-12-18T04:56:44;-6.00;65.70
22923;DHT22;11627;51.322;22.816;2022-12-18T04:59:10;-5.90;66.90
22923;DHT22;11627;51.322;22.816;2022-12-18T05:01:35;-4.60;67.40
22923;DHT22;11627;51.322;22.816;2022-12-18T05:04:02;-6.00;66.60
22923;DHT22;11627;51.322;22.816;2022-12-18T05:06:27;-6.00;66.20
22923;DHT22;11627;51.322;22.816;2022-12-18T05:08:53;-6.10;64.20
22923;DHT22;11627;51.322;22.816;2022-12-18T05:11:19;-6.10;65.10
22923;DHT22;11627;51.322;22.816;2022-12-18T05:13:45;-6.10;65.80
22923;DHT22;11627;51.322;22.816;2022-12-18T05:16:11;-6.20;64.30
22923;DHT22;11627;51.322;22.816;2022-12-18T05:18:37;-6.20;61.40
22923;DHT22;11627;51.322;22.816;2022-12-18T05:21:04;-6.30;55.30
22923;DHT22;11627;51.322;22.816;2022-12-18T05:23:30;-6.30;53.60
22923;DHT22;11627;51.322;22.816;2022-12-18T05:25:59;-6.30;53.10
22923;DHT22;11627;51.322;22.816;2022-12-18T05:28:27;-6.30;49.40
22923;DHT22;11627;51.322;22.816;2022-12-18T05:30:55;-6.40;50.90
22923;DHT22;11627;51.322;22.816;2022-12-18T05:33:22;-6.50;52.60
22923;DHT22;11627;51.322;22.816;2022-12-18T05:35:52;-6.50;53.70
22923;DHT22;11627;51.322;22.816;2022-12-18T05:38:19;-6.50;54.40
22923;DHT22;11627;51.322;22.816;2022-12-18T05:40:45;-6.40;54.50
22923;DHT22;11627;51.322;22.816;2022-12-18T05:43:11;-6.40;52.70
22923;DHT22;11627;51.322;22.816;2022-12-18T05:45:38;-6.40;50.50
22923;DHT22;11627;51.322;22.816;2022-12-18T05:48:04;-6.30;49.30
22923;DHT22;11627;51.322;22.816;2022-12-18T05:50:34;-6.40;44.60
22923;DHT22;11627;51.322;22.816;2022-12-18T05:53:00;-6.50;45.20
22923;DHT22;11627;51.322;22.816;2022-12-18T05:55:25;-6.40;47.60
22923;DHT22;11627;51.322;22.816;2022-12-18T05:57:51;-6.40;46.80
22923;DHT22;11627;51.322;22.816;2022-12-18T06:00:17;-6.40;46.20
22923;DHT22;11627;51.322;22.816;2022-12-18T06:02:46;-6.30;46.70
22923;DHT22;11627;51.322;22.816;2022-12-18T06:05:12;-6.30;47.10
22923;DHT22;11627;51.322;22.816;2022-12-18T06:07:38;-6.20;45.80
22923;DHT22;11627;51.322;22.816;2022-12-18T06:10:03;-6.10;41.30
22923;DHT22;11627;51.322;22.816;2022-12-18T06:12:29;-6.10;36.00
22923;DHT22;11627;51.322;22.816;2022-12-18T06:14:56;-6.10;32.00
22923;DHT22;11627;51.322;22.816;2022-12-18T06:17:22;-6.20;27.80
22923;DHT22;11627;51.322;22.816;2022-12-18T06:19:48;-6.10;28.60
22923;DHT22;11627;51.322;22.816;2022-12-18T06:22:13;-6.00;27.40
22923;DHT22;11627;51.322;22.816;2022-12-18T06:24:40;-6.10;26.40
22923;DHT22;11627;51.322;22.816;2022-12-18T06:27:06;-6.10;24.80
22923;DHT22;11627;51.322;22.816;2022-12-18T06:29:31;-6.10;22.50
22923;DHT22;11627;51.322;22.816;2022-12-18T06:31:57;-6.30;23.60
22923;DHT22;11627;51.322;22.816;2022-12-18T06:34:22;-6.30;26.80
22923;DHT22;11627;51.322;22.816;2022-12-18T06:36:48;-6.20;25.60
22923;DHT22;11627;51.322;22.816;2022-12-18T06:39:14;-6.30;21.60
22923;DHT22;11627;51.322;22.816;2022-12-18T06:41:39;-6.20;24.10
22923;DHT22;11627;51.322;22.816;2022-12-18T06:44:05;-6.20;21.70
22923;DHT22;11627;51.322;22.816;2022-12-18T06:46:31;-6.20;23.20
22923;DHT22;11627;51.322;22.816;2022-12-18T06:48:57;-6.10;24.50
22923;DHT22;11627;51.322;22.816;2022-12-18T06:51:24;-6.20;21.90
22923;DHT22;11627;51.322;22.816;2022-12-18T06:53:49;-6.30;22.70
22923;DHT22;11627;51.322;22.816;2022-12-18T06:56:15;-6.40;27.30
22923;DHT22;11627;51.322;22.816;2022-12-18T06:58:41;-6.40;29.10
22923;DHT22;11627;51.322;22.816;2022-12-18T07:01:09;-6.30;32.00
22923;DHT22;11627;51.322;22.816;2022-12-18T07:03:36;-6.20;32.50
22923;DHT22;11627;51.322;22.816;2022-12-18T07:06:02;-6.60;30.00
22923;DHT22;11627;51.322;22.816;2022-12-18T07:08:29;-6.10;29.60
22923;DHT22;11627;51.322;22.816;2022-12-18T07:10:55;-6.00;29.90
22923;DHT22;11627;51.322;22.816;2022-12-18T07:13:21;-6.10;25.80
22923;DHT22;11627;51.322;22.816;2022-12-18T07:15:48;-6.00;27.90
22923;DHT22;11627;51.322;22.816;2022-12-18T07:18:13;-6.00;26.50
22923;DHT22;11627;51.322;22.816;2022-12-18T07:20:39;-5.90;26.70
22923;DHT22;11627;51.322;22.816;2022-12-18T07:23:06;-5.90;27.00
22923;DHT22;11627;51.322;22.816;2022-12-18T07:25:36;-5.80;26.90
22923;DHT22;11627;51.322;22.816;2022-12-18T07:28:03;-5.30;25.70
22923;DHT22;11627;51.322;22.816;2022-12-18T07:30:31;-5.90;24.70
22923;DHT22;11627;51.322;22.816;2022-12-18T07:32:57;-5.90;26.80
22923;DHT22;11627;51.322;22.816;2022-12-18T07:35:23;-5.90;28.00
22923;DHT22;11627;51.322;22.816;2022-12-18T07:37:49;-5.80;29.70
22923;DHT22;11627;51.322;22.816;2022-12-18T07:40:14;-5.80;28.60
22923;DHT22;11627;51.322;22.816;2022-12-18T07:42:40;-5.80;29.00
22923;DHT22;11627;51.322;22.816;2022-12-18T07:45:06;-5.80;27.50
22923;DHT22;11627;51.322;22.816;2022-12-18T07:47:34;-5.90;27.20
22923;DHT22;11627;51.322;22.816;2022-12-18T07:50:00;-5.90;31.30
22923;DHT22;11627;51.322;22.816;2022-12-18T07:52:26;-5.90;31.20
22923;DHT22;11627;51.322;22.816;2022-12-18T07:54:52;-5.90;29.10
22923;DHT22;11627;51.322;22.816;2022-12-18T07:57:17;-5.80;29.30
22923;DHT22;11627;51.322;22.816;2022-12-18T07:59:43;-5.80;28.60
22923;DHT22;11627;51.322;22.816;2022-12-18T08:02:08;-5.80;28.90
22923;DHT22;11627;51.322;22.816;2022-12-18T08:04:34;-5.80;28.60
22923;DHT22;11627;51.322;22.816;2022-12-18T08:07:01;-5.80;28.50
22923;DHT22;11627;51.322;22.816;2022-12-18T08:09:27;-5.90;28.10
22923;DHT22;11627;51.322;22.816;2022-12-18T08:11:54;-5.80;30.60
22923;DHT22;11627;51.322;22.816;2022-12-18T08:14:19;-5.80;28.70
22923;DHT22;11627;51.322;22.816;2022-12-18T08:16:45;-5.80;31.00
22923;DHT22;11627;51.322;22.816;2022-12-18T08:19:12;-5.70;31.00
22923;DHT22;11627;51.322;22.816;2022-12-18T08:21:38;-5.70;28.30
22923;DHT22;11627;51.322;22.816;2022-12-18T08:24:05;-5.80;22.90
22923;DHT22;11627;51.322;22.816;2022-12-18T08:26:31;-5.80;25.10
22923;DHT22;11627;51.322;22.816;2022-12-18T08:28:58;-5.80;26.80
22923;DHT22;11627;51.322;22.816;2022-12-18T08:31:25;-5.80;26.00
22923;DHT22;11627;51.322;22.816;2022-12-18T08:33:53;-5.80;25.10
22923;DHT22;11627;51.322;22.816;2022-12-18T08:36:20;-5.80;25.90
22923;DHT22;11627;51.322;22.816;2022-12-18T08:38:46;-5.80;22.30
22923;DHT22;11627;51.322;22.816;2022-12-18T08:41:14;-5.80;21.50
22923;DHT22;11627;51.322;22.816;2022-12-18T08:43:41;-5.70;21.50
22923;DHT22;11627;51.322;22.816;2022-12-18T08:46:27;-5.70;17.50
22923;DHT22;11627;51.322;22.816;2022-12-18T08:48:56;-5.80;15.60
22923;DHT22;11627;51.322;22.816;2022-12-18T08:51:21;-5.80;18.50
22923;DHT22;11627;51.322;22.816;2022-12-18T08:53:47;-5.80;12.20
22923;DHT22;11627;51.322;22.816;2022-12-18T08:56:14;-5.90;14.60
22923;DHT22;11627;51.322;22.816;2022-12-18T08:58:40;-5.80;16.40
22923;DHT22;11627;51.322;22.816;2022-12-18T09:01:09;-5.70;12.50
22923;DHT22;11627;51.322;22.816;2022-12-18T09:03:35;-5.70;12.60
22923;DHT22;11627;51.322;22.816;2022-12-18T09:06:03;-5.50;13.60
22923;DHT22;11627;51.322;22.816;2022-12-18T09:08:29;-5.50;11.30
22923;DHT22;11627;51.322;22.816;2022-12-18T09:10:56;-5.50;6.30
22923;DHT22;11627;51.322;22.816;2022-12-18T09:13:22;-5.60;7.50
22923;DHT22;11627;51.322;22.816;2022-12-18T09:15:51;-5.60;4.10
22923;DHT22;11627;51.322;22.816;2022-12-18T09:18:23;-5.70;4.20
22923;DHT22;11627;51.322;22.816;2022-12-18T09:20:49;-5.60;5.10
22923;DHT22;11627;51.322;22.816;2022-12-18T09:23:17;-5.60;7.60
22923;DHT22;11627;51.322;22.816;2022-12-18T09:25:42;-5.60;3.30
22923;DHT22;11627;51.322;22.816;2022-12-18T09:28:16;-5.70;1.00
22923;DHT22;11627;51.322;22.816;2022-12-18T09:30:45;-5.60;1.00
22923;DHT22;11627;51.322;22.816;2022-12-18T09:33:11;-6.00;1.00
22923;DHT22;11627;51.322;22.816;2022-12-18T09:35:37;-5.60;1.00
22923;DHT22;11627;51.322;22.816;2022-12-18T09:38:04;-5.50;1.00
22923;DHT22;11627;51.322;22.816;2022-12-18T09:40:35;-5.50;1.00
22923;DHT22;11627;51.322;22.816;2022-12-18T09:43:04;-5.50;1.00
22923;DHT22;11627;51.322;22.816;2022-12-18T09:45:39;-5.50;1.00
22923;DHT22;11627;51.322;22.816;2022-12-18T09:48:08;-5.50;1.00
22923;DHT22;11627;51.322;22.816;2022-12-18T09:50:42;-4.60;1.00
22923;DHT22;11627;51.322;22.816;2022-12-18T09:53:17;-4.50;1.00
22923;DHT22;11627;51.322;22.816;2022-12-18T09:55:46;-5.40;1.00
22923;DHT22;11627;51.322;22.816;2022-12-18T09:58:37;-5.30;1.00
22923;DHT22;11627;51.322;22.816;2022-12-18T10:01:11;-5.30;1.00
22923;DHT22;11627;51.322;22.816;2022-12-18T10:03:38;-5.30;1.00
22923;DHT22;11627;51.322;22.816;2022-12-18T10:15:10;-5.30;1.00
22923;DHT22;11627;51.322;22.816;2022-12-18T10:18:01;-5.40;1.00
22923;DHT22;11627;51.322;22.816;2022-12-18T10:20:49;-5.30;1.00
22923;DHT22;11627;51.322;22.816;2022-12-18T10:23:21;-5.20;1.00
22923;DHT22;11627;51.322;22.816;2022-12-18T10:26:09;-5.10;1.00
22923;DHT22;11627;51.322;22.816;2022-12-18T10:28:37;-5.10;1.00
22923;DHT22;11627;51.322;22.816;2022-12-18T10:31:06;-5.10;1.00
22923;DHT22;11627;51.322;22.816;2022-12-18T10:33:33;-5.20;1.00
22923;DHT22;11627;51.322;22.816;2022-12-18T10:35:59;-5.10;1.00
22923;DHT22;11627;51.322;22.816;2022-12-18T10:38:28;-5.20;1.00
22923;DHT22;11627;51.322;22.816;2022-12-18T10:41:01;-5.20;1.00
22923;DHT22;11627;51.322;22.816;2022-12-18T10:43:35;-5.30;1.00
22923;DHT22;11627;51.322;22.816;2022-12-18T10:49:03;-5.20;1.00
22923;DHT22;11627;51.322;22.816;2022-12-18T10:51:33;-5.20;1.00
22923;DHT22;11627;51.322;22.816;2022-12-18T10:54:21;-5.10;1.00
22923;DHT22;11627;51.322;22.816;2022-12-18T10:56:48;-5.10;1.00
22923;DHT22;11627;51.322;22.816;2022-12-18T10:59:16;-5.00;1.00
22923;DHT22;11627;51.322;22.816;2022-12-18T11:02:01;-5.00;1.00
22923;DHT22;11627;51.322;22.816;2022-12-18T11:04:29;-5.00;1.00
22923;DHT22;11627;51.322;22.816;2022-12-18T11:07:01;-5.10;1.00
22923;DHT22;11627;51.322;22.816;2022-12-18T11:09:35;-5.20;1.00
22923;DHT22;11627;51.322;22.816;2022-12-18T11:12:04;-5.10;1.00
22923;DHT22;11627;51.322;22.816;2022-12-18T11:14:51;-5.20;1.00
22923;DHT22;11627;51.322;22.816;2022-12-18T11:17:32;-5.20;1.00
22923;DHT22;11627;51.322;22.816;2022-12-18T11:20:19;-5.20;1.00
22923;DHT22;11627;51.322;22.816;2022-12-18T11:23:01;-5.30;1.00
22923;DHT22;11627;51.322;22.816;2022-12-18T11:25:30;-5.30;1.00
22923;DHT22;11627;51.322;22.816;2022-12-18T11:28:03;-5.30;1.00
22923;DHT22;11627;51.322;22.816;2022-12-18T11:30:34;-5.40;1.00
22923;DHT22;11627;51.322;22.816;2022-12-18T11:33:20;-5.40;1.00
22923;DHT22;11627;51.322;22.816;2022-12-18T11:35:53;-5.30;1.00
22923;DHT22;11627;51.322;22.816;2022-12-18T11:38:26;-5.40;1.00
22923;DHT22;11627;51.322;22.816;2022-12-18T11:40:58;-5.40;1.00
22923;DHT22;11627;51.322;22.816;2022-12-18T11:43:29;-5.40;1.00
22923;DHT22;11627;51.322;22.816;2022-12-18T11:46:06;-5.40;1.00
22923;DHT22;11627;51.322;22.816;2022-12-18T11:48:45;-5.50;1.00
22923;DHT22;11627;51.322;22.816;2022-12-18T11:51:25;-5.50;1.00
22923;DHT22;11627;51.322;22.816;2022-12-18T11:53:52;-5.50;1.00
22923;DHT22;11627;51.322;22.816;2022-12-18T11:56:56;-5.60;1.00
22923;DHT22;11627;51.322;22.816;2022-12-18T11:59:33;-5.50;1.00
22923;DHT22;11627;51.322;22.816;2022-12-18T12:21:13;-5.50;1.00
22923;DHT22;11627;51.322;22.816;2022-12-18T12:26:45;-5.50;1.00
22923;DHT22;11627;51.322;22.816;2022-12-18T12:29:57;-5.50;1.00
22923;DHT22;11627;51.322;22.816;2022-12-18T12:40:27;-5.70;1.00
22923;DHT22;11627;51.322;22.816;2022-12-18T12:43:02;-6.00;1.00
22923;DHT22;11627;51.322;22.816;2022-12-18T12:51:28;-6.00;1.00
22923;DHT22;11627;51.322;22.816;2022-12-18T12:53:54;-5.80;1.00
22923;DHT22;11627;51.322;22.816;2022-12-18T12:56:24;-5.70;1.00
22923;DHT22;11627;51.322;22.816;2022-12-18T12:59:49;-5.80;1.00
22923;DHT22;11627;51.322;22.816;2022-12-18T13:07:29;-6.00;1.00
22923;DHT22;11627;51.322;22.816;2022-12-18T13:10:34;-5.90;1.00
22923;DHT22;11627;51.322;22.816;2022-12-18T13:15:46;-6.10;1.00
22923;DHT22;11627;51.322;22.816;2022-12-18T13:18:23;-6.10;1.00
22923;DHT22;11627;51.322;22.816;2022-12-18T13:21:02;-6.00;1.00
22923;DHT22;11627;51.322;22.816;2022-12-18T13:23:36;-6.00;1.00
22923;DHT22;11627;51.322;22.816;2022-12-18T13:31:00;-5.90;1.00
22923;DHT22;11627;51.322;22.816;2022-12-18T13:38:41;-6.20;1.00
22923;DHT22;11627;51.322;22.816;2022-12-18T13:41:23;-4.90;1.00
22923;DHT22;11627;51.322;22.816;2022-12-18T13:43:57;-6.10;1.00
22923;DHT22;11627;51.322;22.816;2022-12-18T13:46:46;-6.10;1.00
22923;DHT22;11627;51.322;22.816;2022-12-18T13:51:49;-6.10;1.00
22923;DHT22;11627;51.322;22.816;2022-12-18T13:54:36;-6.10;1.00
22923;DHT22;11627;51.322;22.816;2022-12-18T13:57:03;-6.20;1.00
22923;DHT22;11627;51.322;22.816;2022-12-18T13:59:40;-6.20;1.00
22923;DHT22;11627;51.322;22.816;2022-12-18T14:02:23;-6.20;1.00
22923;DHT22;11627;51.322;22.816;2022-12-18T14:04:50;-6.40;1.00
22923;DHT22;11627;51.322;22.816;2022-12-18T14:07:20;-6.40;2.70
22923;DHT22;11627;51.322;22.816;2022-12-18T14:09:52;-6.40;1.80
22923;DHT22;11627;51.322;22.816;2022-12-18T14:12:21;-6.20;2.80
22923;DHT22;11627;51.322;22.816;2022-12-18T14:17:46;-6.30;1.00
22923;DHT22;11627;51.322;22.816;2022-12-18T14:20:15;-6.40;2.00
22923;DHT22;11627;51.322;22.816;2022-12-18T14:22:47;-6.40;6.00
22923;DHT22;11627;51.322;22.816;2022-12-18T14:25:21;-6.30;8.10
22923;DHT22;11627;51.322;22.816;2022-12-18T14:27:51;-6.20;6.40
22923;DHT22;11627;51.322;22.816;2022-12-18T14:35:35;-6.00;1.00
22923;DHT22;11627;51.322;22.816;2022-12-18T14:38:21;-6.10;1.00
22923;DHT22;11627;51.322;22.816;2022-12-18T14:40:48;-6.00;1.00
22923;DHT22;11627;51.322;22.816;2022-12-18T14:43:18;-6.00;1.00
22923;DHT22;11627;51.322;22.816;2022-12-18T14:45:44;-6.00;1.00
22923;DHT22;11627;51.322;22.816;2022-12-18T14:50:36;-6.10;1.00
22923;DHT22;11627;51.322;22.816;2022-12-18T14:53:02;-6.10;1.00
22923;DHT22;11627;51.322;22.816;2022-12-18T14:55:28;-6.20;1.00
22923;DHT22;11627;51.322;22.816;2022-12-18T14:57:55;-6.00;1.00
22923;DHT22;11627;51.322;22.816;2022-12-18T15:00:24;-5.90;1.00
22923;DHT22;11627;51.322;22.816;2022-12-18T15:02:54;-5.80;1.00
22923;DHT22;11627;51.322;22.816;2022-12-18T15:05:31;-5.90;1.00
22923;DHT22;11627;51.322;22.816;2022-12-18T15:07:59;-5.90;1.00
22923;DHT22;11627;51.322;22.816;2022-12-18T15:10:30;-6.00;1.00
22923;DHT22;11627;51.322;22.816;2022-12-18T15:20:40;-5.70;1.00
22923;DHT22;11627;51.322;22.816;2022-12-18T15:23:20;-5.90;1.00
22923;DHT22;11627;51.322;22.816;2022-12-18T15:25:48;-5.90;1.00
22923;DHT22;11627;51.322;22.816;2022-12-18T15:28:22;-5.80;1.00
22923;DHT22;11627;51.322;22.816;2022-12-18T15:31:22;-5.80;1.00
22923;DHT22;11627;51.322;22.816;2022-12-18T15:36:20;-5.80;1.00
22923;DHT22;11627;51.322;22.816;2022-12-18T15:38:47;-5.90;1.00
22923;DHT22;11627;51.322;22.816;2022-12-18T15:41:18;-5.90;1.00
22923;DHT22;11627;51.322;22.816;2022-12-18T15:43:45;-5.90;1.00
22923;DHT22;11627;51.322;22.816;2022-12-18T15:46:17;-5.70;1.00
22923;DHT22;11627;51.322;22.816;2022-12-18T15:48:48;-5.60;1.00
22923;DHT22;11627;51.322;22.816;2022-12-18T15:53:42;-5.60;1.00
22923;DHT22;11627;51.322;22.816;2022-12-18T15:56:12;-5.70;1.00
22923;DHT22;11627;51.322;22.816;2022-12-18T15:58:56;-5.70;1.00
22923;DHT22;11627;51.322;22.816;2022-12-18T16:01:31;-5.70;1.00
22923;DHT22;11627;51.322;22.816;2022-12-18T16:03:57;-5.70;1.00
22923;DHT22;11627;51.322;22.816;2022-12-18T16:06:23;-5.90;1.00
22923;DHT22;11627;51.322;22.816;2022-12-18T16:08:49;-5.90;1.00
22923;DHT22;11627;51.322;22.816;2022-12-18T16:11:29;-5.90;1.00
22923;DHT22;11627;51.322;22.816;2022-12-18T16:14:10;-5.90;1.00
22923;DHT22;11627;51.322;22.816;2022-12-18T16:16:39;-5.90;1.00
22923;DHT22;11627;51.322;22.816;2022-12-18T16:19:06;-5.90;1.00
22923;DHT22;11627;51.322;22.816;2022-12-18T16:21:33;-5.80;1.00
22923;DHT22;11627;51.322;22.816;2022-12-18T16:23:59;-5.80;1.00
22923;DHT22;11627;51.322;22.816;2022-12-18T16:26:25;-5.80;1.00
22923;DHT22;11627;51.322;22.816;2022-12-18T16:28:51;-5.90;1.00
22923;DHT22;11627;51.322;22.816;2022-12-18T16:31:18;-5.90;1.00
22923;DHT22;11627;51.322;22.816;2022-12-18T16:33:44;-5.90;1.00
22923;DHT22;11627;51.322;22.816;2022-12-18T16:36:10;-5.90;1.00
22923;DHT22;11627;51.322;22.816;2022-12-18T16:38:37;-5.80;1.00
22923;DHT22;11627;51.322;22.816;2022-12-18T16:41:20;-5.80;1.00
22923;DHT22;11627;51.322;22.816;2022-12-18T16:44:06;-5.80;1.00
22923;DHT22;11627;51.322;22.816;2022-12-18T16:46:31;-5.70;1.00
22923;DHT22;11627;51.322;22.816;2022-12-18T16:48:58;-5.80;1.00
22923;DHT22;11627;51.322;22.816;2022-12-18T16:51:33;-6.00;1.00
22923;DHT22;11627;51.322;22.816;2022-12-18T16:54:16;-6.00;1.00
22923;DHT22;11627;51.322;22.816;2022-12-18T16:56:42;-5.90;1.00
22923;DHT22;11627;51.322;22.816;2022-12-18T16:59:13;-6.00;1.00
22923;DHT22;11627;51.322;22.816;2022-12-18T17:04:23;-6.10;1.00
22923;DHT22;11627;51.322;22.816;2022-12-18T17:06:50;-6.20;1.00
22923;DHT22;11627;51.322;22.816;2022-12-18T17:09:21;-6.20;1.00
22923;DHT22;11627;51.322;22.816;2022-12-18T17:11:54;-6.30;1.00
22923;DHT22;11627;51.322;22.816;2022-12-18T17:14:22;-6.20;1.00
22923;DHT22;11627;51.322;22.816;2022-12-18T17:16:48;-6.30;1.00
22923;DHT22;11627;51.322;22.816;2022-12-18T17:19:14;-6.40;1.00
22923;DHT22;11627;51.322;22.816;2022-12-18T17:21:45;-6.30;1.00
22923;DHT22;11627;51.322;22.816;2022-12-18T17:24:13;-6.30;1.00
22923;DHT22;11627;51.322;22.816;2022-12-18T17:26:39;-6.40;1.00
22923;DHT22;11627;51.322;22.816;2022-12-18T17:29:05;-6.40;1.00
22923;DHT22;11627;51.322;22.816;2022-12-18T17:31:33;-6.30;1.00
22923;DHT22;11627;51.322;22.816;2022-12-18T17:34:05;-6.40;1.00
22923;DHT22;11627;51.322;22.816;2022-12-18T17:36:31;-6.80;1.00
22923;DHT22;11627;51.322;22.816;2022-12-18T17:39:00;-6.80;1.00
22923;DHT22;11627;51.322;22.816;2022-12-18T17:41:28;-6.80;1.00